Terminal Aerodrome Forecast
Issued by NWS

Home | Current Version | Previous Version | Text Only | Print | Product List | Glossary Off
Versions: 1 2 3 4 5 6 7 8 9 10 11 12 13 14 15 16 17 18 19 20

000
FTUS43 KGRB 161500 AAA
TAFRHI
TAF AMD
KRHI 161504Z 1615/1712 13010G16KT 1/2SM SN FZFG VV011
      TEMPO 1616/1620 1 1/2SM -SN OVC007
     FM162000 10013G21KT 1 1/2SM -SN BKN012 OVC020 WS015/15040KT
     FM170700 11010KT 1/2SM SN VV006 WS015/15040KT=

USA.gov is the U.S. government's official web portal to all federal, state and local government web resources and services.